sensor_id;sensor_type;location;lat;lon;timestamp;P1;durP1;ratioP1;P2;durP2;ratioP2
57726;SDS011;43568;43.180;-0.028;2022-11-18T00:00:53;3.40;;;3.10;;
57726;SDS011;43568;43.180;-0.028;2022-11-18T00:03:19;3.63;;;3.30;;
57726;SDS011;43568;43.180;-0.028;2022-11-18T00:05:55;3.95;;;3.63;;
57726;SDS011;43568;43.180;-0.028;2022-11-18T00:08:22;3.50;;;3.25;;
57726;SDS011;43568;43.180;-0.028;2022-11-18T00:10:48;4.65;;;3.15;;
57726;SDS011;43568;43.180;-0.028;2022-11-18T00:13:14;4.47;;;3.20;;
57726;SDS011;43568;43.180;-0.028;2022-11-18T00:15:59;4.50;;;3.30;;
57726;SDS011;43568;43.180;-0.028;2022-11-18T00:18:26;3.75;;;3.42;;
57726;SDS011;43568;43.180;-0.028;2022-11-18T00:20:52;3.13;;;3.00;;
57726;SDS011;43568;43.180;-0.028;2022-11-18T00:23:18;3.40;;;3.10;;
57726;SDS011;43568;43.180;-0.028;2022-11-18T00:25:44;3.50;;;3.20;;
57726;SDS011;43568;43.180;-0.028;2022-11-18T00:28:10;4.35;;;3.15;;
57726;SDS011;43568;43.180;-0.028;2022-11-18T00:30:36;3.40;;;3.20;;
57726;SDS011;43568;43.180;-0.028;2022-11-18T00:33:02;3.97;;;3.40;;
57726;SDS011;43568;43.180;-0.028;2022-11-18T00:35:28;3.65;;;3.45;;
57726;SDS011;43568;43.180;-0.028;2022-11-18T00:37:54;4.38;;;3.22;;
57726;SDS011;43568;43.180;-0.028;2022-11-18T00:40:20;3.60;;;3.40;;
57726;SDS011;43568;43.180;-0.028;2022-11-18T00:42:46;6.60;;;3.67;;
57726;SDS011;43568;43.180;-0.028;2022-11-18T00:45:15;3.60;;;3.40;;
57726;SDS011;43568;43.180;-0.028;2022-11-18T00:47:41;3.90;;;3.60;;
57726;SDS011;43568;43.180;-0.028;2022-11-18T00:50:07;3.30;;;3.10;;
57726;SDS011;43568;43.180;-0.028;2022-11-18T00:52:33;6.35;;;3.47;;
57726;SDS011;43568;43.180;-0.028;2022-11-18T00:54:59;3.72;;;3.42;;
57726;SDS011;43568;43.180;-0.028;2022-11-18T00:57:25;3.63;;;3.33;;
57726;SDS011;43568;43.180;-0.028;2022-11-18T00:59:51;3.58;;;3.30;;
57726;SDS011;43568;43.180;-0.028;2022-11-18T01:02:17;3.60;;;3.38;;
57726;SDS011;43568;43.180;-0.028;2022-11-18T01:04:43;6.60;;;3.50;;
57726;SDS011;43568;43.180;-0.028;2022-11-18T01:07:09;3.40;;;3.20;;
57726;SDS011;43568;43.180;-0.028;2022-11-18T01:09:35;3.63;;;3.33;;
57726;SDS011;43568;43.180;-0.028;2022-11-18T01:12:02;3.70;;;3.40;;
57726;SDS011;43568;43.180;-0.028;2022-11-18T01:14:47;3.80;;;3.45;;
57726;SDS011;43568;43.180;-0.028;2022-11-18T01:17:13;5.45;;;3.55;;
57726;SDS011;43568;43.180;-0.028;2022-11-18T01:19:39;4.55;;;3.40;;
57726;SDS011;43568;43.180;-0.028;2022-11-18T01:22:05;3.53;;;3.22;;
57726;SDS011;43568;43.180;-0.028;2022-11-18T01:24:32;4.10;;;3.17;;
57726;SDS011;43568;43.180;-0.028;2022-11-18T01:26:59;3.05;;;2.95;;
57726;SDS011;43568;43.180;-0.028;2022-11-18T01:29:25;3.58;;;3.30;;
57726;SDS011;43568;43.180;-0.028;2022-11-18T01:31:51;3.30;;;3.10;;
57726;SDS011;43568;43.180;-0.028;2022-11-18T01:34:17;3.33;;;3.08;;
57726;SDS011;43568;43.180;-0.028;2022-11-18T01:36:43;3.33;;;3.00;;
57726;SDS011;43568;43.180;-0.028;2022-11-18T01:39:09;5.22;;;3.13;;
57726;SDS011;43568;43.180;-0.028;2022-11-18T01:41:35;3.95;;;3.40;;
57726;SDS011;43568;43.180;-0.028;2022-11-18T01:44:03;3.65;;;3.28;;
57726;SDS011;43568;43.180;-0.028;2022-11-18T01:46:32;3.55;;;3.25;;
57726;SDS011;43568;43.180;-0.028;2022-11-18T01:49:02;3.55;;;3.35;;
57726;SDS011;43568;43.180;-0.028;2022-11-18T01:51:36;3.85;;;3.50;;
57726;SDS011;43568;43.180;-0.028;2022-11-18T01:54:05;3.63;;;3.33;;
57726;SDS011;43568;43.180;-0.028;2022-11-18T01:56:36;4.55;;;3.50;;
57726;SDS011;43568;43.180;-0.028;2022-11-18T01:59:05;3.67;;;3.38;;
57726;SDS011;43568;43.180;-0.028;2022-11-18T02:01:32;3.47;;;3.28;;
57726;SDS011;43568;43.180;-0.028;2022-11-18T02:03:58;3.10;;;3.00;;
57726;SDS011;43568;43.180;-0.028;2022-11-18T02:06:24;3.42;;;3.33;;
57726;SDS011;43568;43.180;-0.028;2022-11-18T02:08:50;3.60;;;3.40;;
57726;SDS011;43568;43.180;-0.028;2022-11-18T02:11:17;3.33;;;3.13;;
57726;SDS011;43568;43.180;-0.028;2022-11-18T02:14:03;4.07;;;3.30;;
57726;SDS011;43568;43.180;-0.028;2022-11-18T02:19:33;3.47;;;3.22;;
57726;SDS011;43568;43.180;-0.028;2022-11-18T02:30:16;3.40;;;3.20;;
57726;SDS011;43568;43.180;-0.028;2022-11-18T02:35:17;3.10;;;3.00;;
57726;SDS011;43568;43.180;-0.028;2022-11-18T02:40:16;3.05;;;2.95;;
57726;SDS011;43568;43.180;-0.028;2022-11-18T02:42:44;3.35;;;3.15;;
57726;SDS011;43568;43.180;-0.028;2022-11-18T02:45:14;3.40;;;3.10;;
57726;SDS011;43568;43.180;-0.028;2022-11-18T02:47:42;3.67;;;3.40;;
57726;SDS011;43568;43.180;-0.028;2022-11-18T02:50:10;3.35;;;3.15;;
57726;SDS011;43568;43.180;-0.028;2022-11-18T02:52:37;3.58;;;3.00;;
57726;SDS011;43568;43.180;-0.028;2022-11-18T02:55:04;3.30;;;3.10;;
57726;SDS011;43568;43.180;-0.028;2022-11-18T02:57:32;3.60;;;3.30;;
57726;SDS011;43568;43.180;-0.028;2022-11-18T02:59:58;3.63;;;3.40;;
57726;SDS011;43568;43.180;-0.028;2022-11-18T03:02:24;3.83;;;3.50;;
57726;SDS011;43568;43.180;-0.028;2022-11-18T03:04:53;4.53;;;3.15;;
57726;SDS011;43568;43.180;-0.028;2022-11-18T03:09:46;2.95;;;2.85;;
57726;SDS011;43568;43.180;-0.028;2022-11-18T03:15:07;3.13;;;3.00;;
57726;SDS011;43568;43.180;-0.028;2022-11-18T03:20:38;3.20;;;2.90;;
57726;SDS011;43568;43.180;-0.028;2022-11-18T03:26:08;3.05;;;2.95;;
57726;SDS011;43568;43.180;-0.028;2022-11-18T03:28:45;3.50;;;3.30;;
57726;SDS011;43568;43.180;-0.028;2022-11-18T03:31:20;3.47;;;3.33;;
57726;SDS011;43568;43.180;-0.028;2022-11-18T03:33:57;3.20;;;3.00;;
57726;SDS011;43568;43.180;-0.028;2022-11-18T03:36:26;3.10;;;3.00;;
57726;SDS011;43568;43.180;-0.028;2022-11-18T03:38:53;3.25;;;3.10;;
57726;SDS011;43568;43.180;-0.028;2022-11-18T03:41:21;3.20;;;3.10;;
57726;SDS011;43568;43.180;-0.028;2022-11-18T03:43:55;3.40;;;3.20;;
57726;SDS011;43568;43.180;-0.028;2022-11-18T03:46:23;3.28;;;3.10;;
57726;SDS011;43568;43.180;-0.028;2022-11-18T03:48:52;3.30;;;3.10;;
57726;SDS011;43568;43.180;-0.028;2022-11-18T03:51:21;4.82;;;3.00;;
57726;SDS011;43568;43.180;-0.028;2022-11-18T03:53:51;3.50;;;3.20;;
57726;SDS011;43568;43.180;-0.028;2022-11-18T03:56:20;3.63;;;3.15;;
57726;SDS011;43568;43.180;-0.028;2022-11-18T04:01:15;3.42;;;3.13;;
57726;SDS011;43568;43.180;-0.028;2022-11-18T04:03:42;3.30;;;3.10;;
57726;SDS011;43568;43.180;-0.028;2022-11-18T04:06:14;3.35;;;3.15;;
57726;SDS011;43568;43.180;-0.028;2022-11-18T04:08:42;3.60;;;3.30;;
57726;SDS011;43568;43.180;-0.028;2022-11-18T04:11:11;3.42;;;3.20;;
57726;SDS011;43568;43.180;-0.028;2022-11-18T04:13:59;3.55;;;3.35;;
57726;SDS011;43568;43.180;-0.028;2022-11-18T04:16:25;4.53;;;4.13;;
57726;SDS011;43568;43.180;-0.028;2022-11-18T04:18:51;6.20;;;4.65;;
57726;SDS011;43568;43.180;-0.028;2022-11-18T04:21:17;4.85;;;4.45;;
57726;SDS011;43568;43.180;-0.028;2022-11-18T04:23:43;4.10;;;3.72;;
57726;SDS011;43568;43.180;-0.028;2022-11-18T04:26:09;6.68;;;5.13;;
57726;SDS011;43568;43.180;-0.028;2022-11-18T04:28:35;6.05;;;5.10;;
57726;SDS011;43568;43.180;-0.028;2022-11-18T04:31:01;10.20;;;6.97;;
57726;SDS011;43568;43.180;-0.028;2022-11-18T04:33:27;10.88;;;6.07;;
57726;SDS011;43568;43.180;-0.028;2022-11-18T04:35:53;21.40;;;14.88;;
57726;SDS011;43568;43.180;-0.028;2022-11-18T04:38:19;21.20;;;13.07;;
57726;SDS011;43568;43.180;-0.028;2022-11-18T04:40:45;20.25;;;14.35;;
57726;SDS011;43568;43.180;-0.028;2022-11-18T04:43:12;24.35;;;14.82;;
57726;SDS011;43568;43.180;-0.028;2022-11-18T04:45:38;16.17;;;11.40;;
57726;SDS011;43568;43.180;-0.028;2022-11-18T04:48:04;24.98;;;15.15;;
57726;SDS011;43568;43.180;-0.028;2022-11-18T04:50:30;18.58;;;12.00;;
57726;SDS011;43568;43.180;-0.028;2022-11-18T04:52:56;13.35;;;8.07;;
57726;SDS011;43568;43.180;-0.028;2022-11-18T04:55:22;15.20;;;11.32;;
57726;SDS011;43568;43.180;-0.028;2022-11-18T04:57:48;13.98;;;9.55;;
57726;SDS011;43568;43.180;-0.028;2022-11-18T05:00:14;4.47;;;4.15;;
57726;SDS011;43568;43.180;-0.028;2022-11-18T05:02:40;4.05;;;3.53;;
57726;SDS011;43568;43.180;-0.028;2022-11-18T05:05:06;3.95;;;3.20;;
57726;SDS011;43568;43.180;-0.028;2022-11-18T05:07:32;3.50;;;3.30;;
57726;SDS011;43568;43.180;-0.028;2022-11-18T05:09:58;3.45;;;3.35;;
57726;SDS011;43568;43.180;-0.028;2022-11-18T05:12:24;4.25;;;3.85;;
57726;SDS011;43568;43.180;-0.028;2022-11-18T05:15:09;6.20;;;3.90;;
57726;SDS011;43568;43.180;-0.028;2022-11-18T05:17:35;3.60;;;3.40;;
57726;SDS011;43568;43.180;-0.028;2022-11-18T05:20:01;3.97;;;3.60;;
57726;SDS011;43568;43.180;-0.028;2022-11-18T05:22:27;3.88;;;3.50;;
57726;SDS011;43568;43.180;-0.028;2022-11-18T05:24:53;6.28;;;3.65;;
57726;SDS011;43568;43.180;-0.028;2022-11-18T05:27:19;4.13;;;3.70;;
57726;SDS011;43568;43.180;-0.028;2022-11-18T05:29:45;3.95;;;3.58;;
57726;SDS011;43568;43.180;-0.028;2022-11-18T05:32:11;3.97;;;3.40;;
57726;SDS011;43568;43.180;-0.028;2022-11-18T05:34:38;5.63;;;3.90;;
57726;SDS011;43568;43.180;-0.028;2022-11-18T05:37:04;4.32;;;4.03;;
57726;SDS011;43568;43.180;-0.028;2022-11-18T05:39:31;6.57;;;4.03;;
57726;SDS011;43568;43.180;-0.028;2022-11-18T05:41:58;4.30;;;3.85;;
57726;SDS011;43568;43.180;-0.028;2022-11-18T05:44:43;4.28;;;3.30;;
57726;SDS011;43568;43.180;-0.028;2022-11-18T05:47:09;3.97;;;3.47;;
57726;SDS011;43568;43.180;-0.028;2022-11-18T05:49:35;5.25;;;4.43;;
57726;SDS011;43568;43.180;-0.028;2022-11-18T05:52:02;4.50;;;4.10;;
57726;SDS011;43568;43.180;-0.028;2022-11-18T05:54:28;4.75;;;4.35;;
57726;SDS011;43568;43.180;-0.028;2022-11-18T05:56:54;4.65;;;3.88;;
57726;SDS011;43568;43.180;-0.028;2022-11-18T05:59:20;7.07;;;4.10;;
57726;SDS011;43568;43.180;-0.028;2022-11-18T06:06:45;5.43;;;3.85;;
57726;SDS011;43568;43.180;-0.028;2022-11-18T06:09:12;3.72;;;3.42;;
57726;SDS011;43568;43.180;-0.028;2022-11-18T06:11:41;3.65;;;3.35;;
57726;SDS011;43568;43.180;-0.028;2022-11-18T06:14:22;4.03;;;3.63;;
57726;SDS011;43568;43.180;-0.028;2022-11-18T06:16:51;4.05;;;3.75;;
57726;SDS011;43568;43.180;-0.028;2022-11-18T06:19:18;6.35;;;3.95;;
57726;SDS011;43568;43.180;-0.028;2022-11-18T06:21:44;4.35;;;3.90;;
57726;SDS011;43568;43.180;-0.028;2022-11-18T06:24:11;4.10;;;3.72;;
57726;SDS011;43568;43.180;-0.028;2022-11-18T06:26:38;3.88;;;3.60;;
57726;SDS011;43568;43.180;-0.028;2022-11-18T06:29:04;7.03;;;3.90;;
57726;SDS011;43568;43.180;-0.028;2022-11-18T06:31:31;5.07;;;3.58;;
57726;SDS011;43568;43.180;-0.028;2022-11-18T06:33:57;4.75;;;4.07;;
57726;SDS011;43568;43.180;-0.028;2022-11-18T06:36:23;4.57;;;4.18;;
57726;SDS011;43568;43.180;-0.028;2022-11-18T06:38:49;3.63;;;3.42;;
57726;SDS011;43568;43.180;-0.028;2022-11-18T06:41:15;5.18;;;3.92;;
57726;SDS011;43568;43.180;-0.028;2022-11-18T06:43:41;4.80;;;4.30;;
57726;SDS011;43568;43.180;-0.028;2022-11-18T06:46:14;3.70;;;3.50;;
57726;SDS011;43568;43.180;-0.028;2022-11-18T06:48:59;3.95;;;3.72;;
57726;SDS011;43568;43.180;-0.028;2022-11-18T06:51:26;3.78;;;3.53;;
57726;SDS011;43568;43.180;-0.028;2022-11-18T06:53:52;4.00;;;3.80;;
57726;SDS011;43568;43.180;-0.028;2022-11-18T06:56:19;5.50;;;3.95;;
57726;SDS011;43568;43.180;-0.028;2022-11-18T06:58:45;5.03;;;3.50;;
57726;SDS011;43568;43.180;-0.028;2022-11-18T07:03:41;4.13;;;3.70;;
57726;SDS011;43568;43.180;-0.028;2022-11-18T07:06:08;5.53;;;3.90;;
57726;SDS011;43568;43.180;-0.028;2022-11-18T07:08:36;4.18;;;3.88;;
57726;SDS011;43568;43.180;-0.028;2022-11-18T07:11:03;3.97;;;3.53;;
57726;SDS011;43568;43.180;-0.028;2022-11-18T07:13:31;3.47;;;3.17;;
57726;SDS011;43568;43.180;-0.028;2022-11-18T07:16:16;3.75;;;3.55;;
57726;SDS011;43568;43.180;-0.028;2022-11-18T07:18:43;4.45;;;4.00;;
57726;SDS011;43568;43.180;-0.028;2022-11-18T07:21:11;3.97;;;3.67;;
57726;SDS011;43568;43.180;-0.028;2022-11-18T07:23:37;4.43;;;3.97;;
57726;SDS011;43568;43.180;-0.028;2022-11-18T07:26:04;3.70;;;3.40;;
57726;SDS011;43568;43.180;-0.028;2022-11-18T07:28:30;4.05;;;3.55;;
57726;SDS011;43568;43.180;-0.028;2022-11-18T07:31:03;5.20;;;3.20;;
57726;SDS011;43568;43.180;-0.028;2022-11-18T07:33:31;4.07;;;3.20;;
57726;SDS011;43568;43.180;-0.028;2022-11-18T07:36:10;3.17;;;2.90;;
57726;SDS011;43568;43.180;-0.028;2022-11-18T07:38:37;3.63;;;3.33;;
57726;SDS011;43568;43.180;-0.028;2022-11-18T07:41:10;3.55;;;3.35;;
57726;SDS011;43568;43.180;-0.028;2022-11-18T07:43:36;5.70;;;5.15;;
57726;SDS011;43568;43.180;-0.028;2022-11-18T07:48:35;10.48;;;6.65;;
57726;SDS011;43568;43.180;-0.028;2022-11-18T07:51:01;6.28;;;5.68;;
57726;SDS011;43568;43.180;-0.028;2022-11-18T07:53:30;8.68;;;7.03;;
57726;SDS011;43568;43.180;-0.028;2022-11-18T07:55:56;6.90;;;5.10;;
57726;SDS011;43568;43.180;-0.028;2022-11-18T07:58:22;7.53;;;6.55;;
57726;SDS011;43568;43.180;-0.028;2022-11-18T08:00:48;7.53;;;4.50;;
57726;SDS011;43568;43.180;-0.028;2022-11-18T08:03:14;4.10;;;3.70;;
57726;SDS011;43568;43.180;-0.028;2022-11-18T08:05:40;4.80;;;3.95;;
57726;SDS011;43568;43.180;-0.028;2022-11-18T08:08:06;3.60;;;3.40;;
57726;SDS011;43568;43.180;-0.028;2022-11-18T08:10:33;3.63;;;3.42;;
57726;SDS011;43568;43.180;-0.028;2022-11-18T08:12:59;3.58;;;3.30;;
57726;SDS011;43568;43.180;-0.028;2022-11-18T08:15:25;3.50;;;3.30;;
57726;SDS011;43568;43.180;-0.028;2022-11-18T08:17:51;4.80;;;3.55;;
57726;SDS011;43568;43.180;-0.028;2022-11-18T08:20:17;3.30;;;3.20;;
57726;SDS011;43568;43.180;-0.028;2022-11-18T08:22:43;5.18;;;3.35;;
57726;SDS011;43568;43.180;-0.028;2022-11-18T08:25:09;4.30;;;3.50;;
57726;SDS011;43568;43.180;-0.028;2022-11-18T08:27:35;3.20;;;3.00;;
57726;SDS011;43568;43.180;-0.028;2022-11-18T08:30:01;3.30;;;3.10;;
57726;SDS011;43568;43.180;-0.028;2022-11-18T08:32:27;3.67;;;3.38;;
57726;SDS011;43568;43.180;-0.028;2022-11-18T08:34:53;3.63;;;3.30;;
57726;SDS011;43568;43.180;-0.028;2022-11-18T08:37:19;5.28;;;3.00;;
57726;SDS011;43568;43.180;-0.028;2022-11-18T08:39:45;3.78;;;3.30;;
57726;SDS011;43568;43.180;-0.028;2022-11-18T08:42:11;3.20;;;3.00;;
57726;SDS011;43568;43.180;-0.028;2022-11-18T08:44:37;3.33;;;3.05;;
57726;SDS011;43568;43.180;-0.028;2022-11-18T08:47:03;3.70;;;3.30;;
57726;SDS011;43568;43.180;-0.028;2022-11-18T08:49:29;4.32;;;3.50;;
57726;SDS011;43568;43.180;-0.028;2022-11-18T08:51:55;3.95;;;3.25;;
57726;SDS011;43568;43.180;-0.028;2022-11-18T08:54:21;3.35;;;3.15;;
57726;SDS011;43568;43.180;-0.028;2022-11-18T08:56:47;4.00;;;3.67;;
57726;SDS011;43568;43.180;-0.028;2022-11-18T08:59:14;6.35;;;3.80;;
57726;SDS011;43568;43.180;-0.028;2022-11-18T09:01:40;3.47;;;3.28;;
57726;SDS011;43568;43.180;-0.028;2022-11-18T09:06:34;4.30;;;3.90;;
57726;SDS011;43568;43.180;-0.028;2022-11-18T09:09:02;3.47;;;3.22;;
57726;SDS011;43568;43.180;-0.028;2022-11-18T09:11:28;8.07;;;3.15;;
57726;SDS011;43568;43.180;-0.028;2022-11-18T09:13:55;5.13;;;3.45;;
57726;SDS011;43568;43.180;-0.028;2022-11-18T09:16:25;6.57;;;3.72;;
57726;SDS011;43568;43.180;-0.028;2022-11-18T09:18:51;3.50;;;3.20;;
57726;SDS011;43568;43.180;-0.028;2022-11-18T09:21:17;3.42;;;2.90;;
57726;SDS011;43568;43.180;-0.028;2022-11-18T09:23:43;3.17;;;2.97;;
57726;SDS011;43568;43.180;-0.028;2022-11-18T09:26:11;3.10;;;2.90;;
57726;SDS011;43568;43.180;-0.028;2022-11-18T09:28:37;4.18;;;3.13;;
57726;SDS011;43568;43.180;-0.028;2022-11-18T09:31:08;3.60;;;3.30;;
57726;SDS011;43568;43.180;-0.028;2022-11-18T09:33:34;5.00;;;3.58;;
57726;SDS011;43568;43.180;-0.028;2022-11-18T09:36:00;4.45;;;3.47;;
57726;SDS011;43568;43.180;-0.028;2022-11-18T09:38:30;7.75;;;3.45;;
57726;SDS011;43568;43.180;-0.028;2022-11-18T09:46:16;4.65;;;3.10;;
57726;SDS011;43568;43.180;-0.028;2022-11-18T09:48:45;4.20;;;3.35;;
57726;SDS011;43568;43.180;-0.028;2022-11-18T09:51:30;3.65;;;3.30;;
57726;SDS011;43568;43.180;-0.028;2022-11-18T09:53:57;3.47;;;3.17;;
57726;SDS011;43568;43.180;-0.028;2022-11-18T09:56:24;4.13;;;3.20;;
57726;SDS011;43568;43.180;-0.028;2022-11-18T09:58:52;4.47;;;3.45;;
57726;SDS011;43568;43.180;-0.028;2022-11-18T10:01:18;2.95;;;2.63;;
57726;SDS011;43568;43.180;-0.028;2022-11-18T10:03:45;3.05;;;2.85;;
57726;SDS011;43568;43.180;-0.028;2022-11-18T10:06:14;3.58;;;2.80;;
57726;SDS011;43568;43.180;-0.028;2022-11-18T10:08:43;2.90;;;2.70;;
57726;SDS011;43568;43.180;-0.028;2022-11-18T10:11:17;5.25;;;3.17;;
57726;SDS011;43568;43.180;-0.028;2022-11-18T10:21:49;3.03;;;2.83;;
57726;SDS011;43568;43.180;-0.028;2022-11-18T10:24:17;3.50;;;2.80;;
57726;SDS011;43568;43.180;-0.028;2022-11-18T10:26:44;3.30;;;3.00;;
57726;SDS011;43568;43.180;-0.028;2022-11-18T10:29:10;2.90;;;2.70;;
57726;SDS011;43568;43.180;-0.028;2022-11-18T10:31:42;3.25;;;2.78;;
57726;SDS011;43568;43.180;-0.028;2022-11-18T10:34:17;3.50;;;2.80;;
57726;SDS011;43568;43.180;-0.028;2022-11-18T10:36:43;3.35;;;3.08;;
57726;SDS011;43568;43.180;-0.028;2022-11-18T10:39:22;3.20;;;2.90;;
57726;SDS011;43568;43.180;-0.028;2022-11-18T10:41:48;2.90;;;2.70;;
57726;SDS011;43568;43.180;-0.028;2022-11-18T10:49:42;3.25;;;3.05;;
57726;SDS011;43568;43.180;-0.028;2022-11-18T10:52:09;3.33;;;3.03;;
57726;SDS011;43568;43.180;-0.028;2022-11-18T10:54:36;3.00;;;2.80;;
57726;SDS011;43568;43.180;-0.028;2022-11-18T10:57:11;3.47;;;3.17;;
57726;SDS011;43568;43.180;-0.028;2022-11-18T10:59:51;3.80;;;2.80;;
57726;SDS011;43568;43.180;-0.028;2022-11-18T11:02:38;3.03;;;2.83;;
57726;SDS011;43568;43.180;-0.028;2022-11-18T11:05:15;4.70;;;3.10;;
57726;SDS011;43568;43.180;-0.028;2022-11-18T11:07:42;2.95;;;2.75;;
57726;SDS011;43568;43.180;-0.028;2022-11-18T11:12:41;3.35;;;3.00;;
57726;SDS011;43568;43.180;-0.028;2022-11-18T11:15:44;7.88;;;3.72;;
57726;SDS011;43568;43.180;-0.028;2022-11-18T11:21:10;3.58;;;3.28;;
57726;SDS011;43568;43.180;-0.028;2022-11-18T11:23:36;3.60;;;3.30;;
57726;SDS011;43568;43.180;-0.028;2022-11-18T11:26:06;4.40;;;3.42;;
57726;SDS011;43568;43.180;-0.028;2022-11-18T11:33:55;3.50;;;3.22;;
57726;SDS011;43568;43.180;-0.028;2022-11-18T11:36:35;3.67;;;3.38;;
57726;SDS011;43568;43.180;-0.028;2022-11-18T11:41:36;3.17;;;2.97;;
57726;SDS011;43568;43.180;-0.028;2022-11-18T11:44:17;5.82;;;3.22;;
57726;SDS011;43568;43.180;-0.028;2022-11-18T11:47:03;3.20;;;2.90;;
57726;SDS011;43568;43.180;-0.028;2022-11-18T11:49:52;2.80;;;2.60;;
57726;SDS011;43568;43.180;-0.028;2022-11-18T11:52:38;3.63;;;3.03;;
57726;SDS011;43568;43.180;-0.028;2022-11-18T11:55:12;3.42;;;3.17;;
57726;SDS011;43568;43.180;-0.028;2022-11-18T12:00:25;3.08;;;2.63;;
57726;SDS011;43568;43.180;-0.028;2022-11-18T12:02:58;3.47;;;2.80;;
57726;SDS011;43568;43.180;-0.028;2022-11-18T12:05:35;2.92;;;2.60;;
57726;SDS011;43568;43.180;-0.028;2022-11-18T12:15:53;6.70;;;3.22;;
57726;SDS011;43568;43.180;-0.028;2022-11-18T12:26:40;3.42;;;3.22;;
57726;SDS011;43568;43.180;-0.028;2022-11-18T12:31:45;3.23;;;3.03;;
57726;SDS011;43568;43.180;-0.028;2022-11-18T12:34:18;3.15;;;2.97;;
57726;SDS011;43568;43.180;-0.028;2022-11-18T12:36:52;5.53;;;3.30;;
57726;SDS011;43568;43.180;-0.028;2022-11-18T12:41:54;5.32;;;3.53;;
57726;SDS011;43568;43.180;-0.028;2022-11-18T12:44:40;3.45;;;3.20;;
57726;SDS011;43568;43.180;-0.028;2022-11-18T12:47:13;4.07;;;3.13;;
57726;SDS011;43568;43.180;-0.028;2022-11-18T12:54:55;3.50;;;2.90;;
57726;SDS011;43568;43.180;-0.028;2022-11-18T12:57:23;3.72;;;3.35;;
57726;SDS011;43568;43.180;-0.028;2022-11-18T12:59:51;3.55;;;3.25;;
57726;SDS011;43568;43.180;-0.028;2022-11-18T13:07:55;3.20;;;3.00;;
57726;SDS011;43568;43.180;-0.028;2022-11-18T13:10:53;2.90;;;2.70;;
57726;SDS011;43568;43.180;-0.028;2022-11-18T13:13:40;3.38;;;3.08;;
57726;SDS011;43568;43.180;-0.028;2022-11-18T13:16:16;3.38;;;3.08;;
57726;SDS011;43568;43.180;-0.028;2022-11-18T13:19:02;3.10;;;2.97;;
57726;SDS011;43568;43.180;-0.028;2022-11-18T13:21:28;2.90;;;2.80;;
57726;SDS011;43568;43.180;-0.028;2022-11-18T13:24:14;3.92;;;3.05;;
57726;SDS011;43568;43.180;-0.028;2022-11-18T13:26:41;3.28;;;3.08;;
57726;SDS011;43568;43.180;-0.028;2022-11-18T13:34:25;4.10;;;3.25;;
57726;SDS011;43568;43.180;-0.028;2022-11-18T13:36:53;3.50;;;3.20;;
57726;SDS011;43568;43.180;-0.028;2022-11-18T13:39:21;4.55;;;3.10;;
57726;SDS011;43568;43.180;-0.028;2022-11-18T13:41:57;3.50;;;3.20;;
57726;SDS011;43568;43.180;-0.028;2022-11-18T13:44:24;5.30;;;3.33;;
57726;SDS011;43568;43.180;-0.028;2022-11-18T13:46:53;3.67;;;3.30;;
57726;SDS011;43568;43.180;-0.028;2022-11-18T13:49:26;3.13;;;2.90;;
57726;SDS011;43568;43.180;-0.028;2022-11-18T13:51:54;3.13;;;2.92;;
57726;SDS011;43568;43.180;-0.028;2022-11-18T13:54:23;7.85;;;3.55;;
57726;SDS011;43568;43.180;-0.028;2022-11-18T13:56:50;7.30;;;3.33;;
57726;SDS011;43568;43.180;-0.028;2022-11-18T13:59:18;3.25;;;3.10;;
57726;SDS011;43568;43.180;-0.028;2022-11-18T14:01:44;3.30;;;3.00;;
57726;SDS011;43568;43.180;-0.028;2022-11-18T14:06:40;4.05;;;3.13;;
57726;SDS011;43568;43.180;-0.028;2022-11-18T14:11:45;5.67;;;3.50;;
57726;SDS011;43568;43.180;-0.028;2022-11-18T14:14:29;3.30;;;3.10;;
57726;SDS011;43568;43.180;-0.028;2022-11-18T14:17:14;4.22;;;3.35;;
57726;SDS011;43568;43.180;-0.028;2022-11-18T14:19:40;3.15;;;3.00;;
57726;SDS011;43568;43.180;-0.028;2022-11-18T14:22:20;3.30;;;3.20;;
57726;SDS011;43568;43.180;-0.028;2022-11-18T14:24:56;3.10;;;3.00;;
57726;SDS011;43568;43.180;-0.028;2022-11-18T14:29:54;4.65;;;3.70;;
57726;SDS011;43568;43.180;-0.028;2022-11-18T14:32:20;4.05;;;3.67;;
57726;SDS011;43568;43.180;-0.028;2022-11-18T14:34:56;4.18;;;3.80;;
57726;SDS011;43568;43.180;-0.028;2022-11-18T14:37:22;3.90;;;3.60;;
57726;SDS011;43568;43.180;-0.028;2022-11-18T14:39:57;4.13;;;3.28;;
57726;SDS011;43568;43.180;-0.028;2022-11-18T14:42:23;4.05;;;3.28;;
57726;SDS011;43568;43.180;-0.028;2022-11-18T14:44:49;3.70;;;3.50;;
57726;SDS011;43568;43.180;-0.028;2022-11-18T14:49:44;3.40;;;3.20;;
57726;SDS011;43568;43.180;-0.028;2022-11-18T14:52:11;3.20;;;3.00;;
57726;SDS011;43568;43.180;-0.028;2022-11-18T14:54:37;3.28;;;3.08;;
57726;SDS011;43568;43.180;-0.028;2022-11-18T14:57:03;3.30;;;3.10;;
57726;SDS011;43568;43.180;-0.028;2022-11-18T14:59:29;2.95;;;2.83;;
57726;SDS011;43568;43.180;-0.028;2022-11-18T15:01:55;3.20;;;3.10;;
57726;SDS011;43568;43.180;-0.028;2022-11-18T15:04:22;3.42;;;3.10;;
57726;SDS011;43568;43.180;-0.028;2022-11-18T15:06:49;3.20;;;3.00;;
57726;SDS011;43568;43.180;-0.028;2022-11-18T15:09:15;3.83;;;3.50;;
57726;SDS011;43568;43.180;-0.028;2022-11-18T15:11:41;3.80;;;3.50;;
57726;SDS011;43568;43.180;-0.028;2022-11-18T15:14:07;4.00;;;3.70;;
57726;SDS011;43568;43.180;-0.028;2022-11-18T15:16:33;3.50;;;3.25;;
57726;SDS011;43568;43.180;-0.028;2022-11-18T15:19:01;3.50;;;3.30;;
57726;SDS011;43568;43.180;-0.028;2022-11-18T15:21:27;3.55;;;3.22;;
57726;SDS011;43568;43.180;-0.028;2022-11-18T15:23:53;3.80;;;3.60;;
57726;SDS011;43568;43.180;-0.028;2022-11-18T15:26:21;3.53;;;3.22;;
57726;SDS011;43568;43.180;-0.028;2022-11-18T15:28:48;3.42;;;3.30;;
57726;SDS011;43568;43.180;-0.028;2022-11-18T15:31:15;3.27;;;3.03;;
57726;SDS011;43568;43.180;-0.028;2022-11-18T15:33:41;3.60;;;3.30;;
57726;SDS011;43568;43.180;-0.028;2022-11-18T15:36:15;3.33;;;3.13;;
57726;SDS011;43568;43.180;-0.028;2022-11-18T15:38:41;3.15;;;3.05;;
57726;SDS011;43568;43.180;-0.028;2022-11-18T15:41:15;3.53;;;3.25;;
57726;SDS011;43568;43.180;-0.028;2022-11-18T15:43:41;3.42;;;3.22;;
57726;SDS011;43568;43.180;-0.028;2022-11-18T15:46:07;3.60;;;3.40;;
57726;SDS011;43568;43.180;-0.028;2022-11-18T15:48:34;3.30;;;3.10;;
57726;SDS011;43568;43.180;-0.028;2022-11-18T15:51:00;3.55;;;3.35;;
57726;SDS011;43568;43.180;-0.028;2022-11-18T15:53:26;3.80;;;3.60;;
57726;SDS011;43568;43.180;-0.028;2022-11-18T15:55:52;3.42;;;3.08;;
57726;SDS011;43568;43.180;-0.028;2022-11-18T15:58:37;3.45;;;3.25;;
57726;SDS011;43568;43.180;-0.028;2022-11-18T16:01:04;3.65;;;3.35;;
57726;SDS011;43568;43.180;-0.028;2022-11-18T16:03:30;3.42;;;3.22;;
57726;SDS011;43568;43.180;-0.028;2022-11-18T16:05:56;3.70;;;3.50;;
57726;SDS011;43568;43.180;-0.028;2022-11-18T16:08:22;3.30;;;3.20;;
57726;SDS011;43568;43.180;-0.028;2022-11-18T16:10:50;3.30;;;3.20;;
57726;SDS011;43568;43.180;-0.028;2022-11-18T16:13:38;3.90;;;3.70;;
57726;SDS011;43568;43.180;-0.028;2022-11-18T16:16:04;3.65;;;3.45;;
57726;SDS011;43568;43.180;-0.028;2022-11-18T16:18:30;3.42;;;3.20;;
57726;SDS011;43568;43.180;-0.028;2022-11-18T16:20:56;3.15;;;3.05;;
57726;SDS011;43568;43.180;-0.028;2022-11-18T16:23:23;3.30;;;3.20;;
57726;SDS011;43568;43.180;-0.028;2022-11-18T16:25:49;3.30;;;3.20;;
57726;SDS011;43568;43.180;-0.028;2022-11-18T16:28:15;3.33;;;3.20;;
57726;SDS011;43568;43.180;-0.028;2022-11-18T16:30:46;3.40;;;3.20;;
57726;SDS011;43568;43.180;-0.028;2022-11-18T16:33:31;4.07;;;3.80;;
57726;SDS011;43568;43.180;-0.028;2022-11-18T16:35:57;3.40;;;3.20;;
57726;SDS011;43568;43.180;-0.028;2022-11-18T16:38:23;3.53;;;3.42;;
57726;SDS011;43568;43.180;-0.028;2022-11-18T16:40:56;3.47;;;3.38;;
57726;SDS011;43568;43.180;-0.028;2022-11-18T16:43:22;3.70;;;3.50;;
57726;SDS011;43568;43.180;-0.028;2022-11-18T16:45:49;3.60;;;3.40;;
57726;SDS011;43568;43.180;-0.028;2022-11-18T16:48:16;3.40;;;3.20;;